createdAt,value
2019-05-16T00:04:20.819Z,3.60
2019-05-16T00:09:21.924Z,4.30
2019-05-16T00:14:23.167Z,6.53
2019-05-16T00:19:24.266Z,4.97
2019-05-16T00:24:25.352Z,5.63
2019-05-16T00:29:27.747Z,4.70
2019-05-16T00:34:29.031Z,4.93
2019-05-16T00:39:30.123Z,4.53
2019-05-16T00:44:31.329Z,5.07
2019-05-16T00:49:32.415Z,5.57
2019-05-16T00:54:33.614Z,6.40
2019-05-16T00:59:35.612Z,6.57
2019-05-16T01:04:38.655Z,7.30
2019-05-16T01:09:39.945Z,6.57
2019-05-16T01:14:41.063Z,6.30
2019-05-16T01:19:42.156Z,6.30
2019-05-16T01:24:43.280Z,7.30
2019-05-16T01:29:44.368Z,7.20
2019-05-16T01:34:45.483Z,7.73
2019-05-16T01:39:48.410Z,8.00
2019-05-16T01:44:49.596Z,7.10
2019-05-16T01:49:50.692Z,7.53
2019-05-16T01:54:51.792Z,7.47
2019-05-16T01:59:52.862Z,8.20
2019-05-16T02:04:53.995Z,7.67
2019-05-16T02:09:55.096Z,10.17
2019-05-16T02:14:58.592Z,8.60
2019-05-16T02:19:59.200Z,8.87
2019-05-16T02:25:00.299Z,8.97
2019-05-16T02:30:01.792Z,8.87
2019-05-16T02:35:04.797Z,11.63
2019-05-16T02:40:07.292Z,13.83
2019-05-16T02:45:10.953Z,10.90
2019-05-16T02:50:12.822Z,10.37
2019-05-16T02:55:14.193Z,13.73
2019-05-16T03:00:20.889Z,12.47
2019-05-16T03:05:22.220Z,12.07
2019-05-16T03:10:23.517Z,11.93
2019-05-16T03:15:24.909Z,13.87
2019-05-16T03:20:26.796Z,13.20
2019-05-16T03:25:30.848Z,11.90
2019-05-16T03:30:35.178Z,12.70
2019-05-16T03:35:34.848Z,11.80
2019-05-16T03:40:36.119Z,14.30
2019-05-16T03:45:41.389Z,13.70
2019-05-16T03:50:41.240Z,14.70
2019-05-16T03:55:42.612Z,13.17
2019-05-16T04:00:52.280Z,13.10
2019-05-16T04:05:53.240Z,17.27
2019-05-16T04:10:54.327Z,12.93
2019-05-16T04:15:55.424Z,15.00
2019-05-16T04:20:56.708Z,16.07
2019-05-16T04:26:00.466Z,12.90
2019-05-16T04:31:01.798Z,12.67
2019-05-16T04:36:03.629Z,10.77
2019-05-16T04:41:04.732Z,13.50
2019-05-16T04:46:05.934Z,13.37
2019-05-16T04:51:07.024Z,13.97
2019-05-16T04:56:10.847Z,11.50
2019-05-16T05:01:11.544Z,10.83
2019-05-16T05:06:12.715Z,9.80
2019-05-16T05:11:13.801Z,10.53
2019-05-16T05:16:14.929Z,11.70
2019-05-16T05:21:16.054Z,12.00
2019-05-16T05:26:17.212Z,11.73
2019-05-16T05:31:23.953Z,14.97
2019-05-16T05:36:21.352Z,13.60
2019-05-16T05:41:22.451Z,10.10
2019-05-16T05:46:23.540Z,12.83
2019-05-16T05:51:24.635Z,12.63
2019-05-16T05:56:25.824Z,11.13
2019-05-16T06:01:26.960Z,14.10
2019-05-16T06:06:30.268Z,13.00
2019-05-16T06:11:31.183Z,11.50
2019-05-16T06:16:32.353Z,12.30
2019-05-16T06:21:34.003Z,18.17
2019-05-16T06:26:35.491Z,14.47
2019-05-16T06:31:36.596Z,16.33
2019-05-16T06:36:39.981Z,9.53
2019-05-16T06:41:41.860Z,10.80
2019-05-16T06:46:56.644Z,12.57
2019-05-16T06:51:46.035Z,12.73
2019-05-16T06:56:47.127Z,10.40
2019-05-16T07:01:50.078Z,9.20
2019-05-16T07:06:58.553Z,9.30
2019-05-16T07:11:54.269Z,8.93
2019-05-16T07:16:55.352Z,9.63
2019-05-16T07:21:56.477Z,10.03
2019-05-16T07:27:00.194Z,8.67
2019-05-16T07:32:00.675Z,10.63
2019-05-16T07:37:01.782Z,10.47
2019-05-16T07:42:03.006Z,9.83
2019-05-16T07:47:04.181Z,11.00
2019-05-16T07:52:05.305Z,12.23
2019-05-16T07:57:15.567Z,11.37
2019-05-16T08:02:11.014Z,9.80
2019-05-16T08:07:12.356Z,8.80
2019-05-16T08:12:13.781Z,9.37
2019-05-16T08:17:14.887Z,9.93
2019-05-16T08:22:15.992Z,9.40
2019-05-16T08:27:20.580Z,8.67
2019-05-16T08:32:22.915Z,9.20
2019-05-16T08:37:37.025Z,9.37
2019-05-16T08:42:26.384Z,8.87
2019-05-16T08:47:27.481Z,14.00
2019-05-16T08:52:31.710Z,8.33
2019-05-16T08:57:33.615Z,11.33
2019-05-16T09:02:36.801Z,8.03
2019-05-16T09:07:37.787Z,7.40
2019-05-16T09:12:38.898Z,7.17
2019-05-16T09:17:40.005Z,7.87
2019-05-16T09:22:41.228Z,7.37
2019-05-16T09:27:42.324Z,8.83
2019-05-16T09:32:43.416Z,8.93
2019-05-16T09:37:44.511Z,8.43
2019-05-16T09:42:47.404Z,7.47
2019-05-16T09:47:48.780Z,8.97
2019-05-16T09:52:50.013Z,10.53
2019-05-16T09:57:54.688Z,8.43
2019-05-16T10:02:54.206Z,8.57
2019-05-16T10:07:57.429Z,7.00
2019-05-16T10:12:58.417Z,7.73
2019-05-16T10:17:59.516Z,8.30
2019-05-16T10:23:00.725Z,11.87
2019-05-16T10:28:02.060Z,6.90
2019-05-16T10:33:03.230Z,6.60
2019-05-16T10:38:04.328Z,7.93
2019-05-16T10:43:07.080Z,5.97
2019-05-16T10:48:08.578Z,8.10
2019-05-16T10:53:32.470Z,7.93
2019-05-16T10:58:12.764Z,6.53
2019-05-16T11:03:13.960Z,6.77
2019-05-16T11:08:15.173Z,7.13
2019-05-16T11:13:17.069Z,5.70
2019-05-16T11:18:19.268Z,5.87
2019-05-16T11:23:22.899Z,9.60
2019-05-16T11:28:23.427Z,6.47
2019-05-16T11:33:24.549Z,5.67
2019-05-16T11:38:25.725Z,5.07
2019-05-16T11:43:27.859Z,5.67
2019-05-16T11:48:29.727Z,6.80
2019-05-16T11:53:30.926Z,5.27
2019-05-16T11:58:32.036Z,6.17
2019-05-16T12:03:33.160Z,5.77
2019-05-16T12:08:34.376Z,4.53
2019-05-16T12:13:36.911Z,4.40
2019-05-16T12:18:38.260Z,5.17
2019-05-16T12:23:39.368Z,4.37
2019-05-16T12:28:40.567Z,4.10
2019-05-16T12:33:41.727Z,5.23
2019-05-16T12:38:42.919Z,4.63
2019-05-16T12:43:49.502Z,6.47
2019-05-16T12:48:47.500Z,23.03
2019-05-16T12:53:48.935Z,4.03
2019-05-16T12:58:50.976Z,5.13
2019-05-16T13:03:52.242Z,5.60
2019-05-16T13:08:53.675Z,4.77
2019-05-16T13:14:03.539Z,3.80
2019-05-16T13:18:57.975Z,3.77
2019-05-16T13:23:59.083Z,5.03
2019-05-16T13:29:00.179Z,4.03
2019-05-16T13:34:01.260Z,3.20
2019-05-16T13:39:04.283Z,7.80
2019-05-16T13:44:15.741Z,4.43
2019-05-16T13:49:08.389Z,5.73
2019-05-16T13:54:09.521Z,7.00
2019-05-16T13:59:10.815Z,4.87
2019-05-16T14:04:12.073Z,4.57
2019-05-16T14:09:13.295Z,3.83
2019-05-16T14:14:18.051Z,4.57
2019-05-16T14:19:17.899Z,5.70
2019-05-16T14:24:19.228Z,5.60
2019-05-16T14:29:20.322Z,5.70
2019-05-16T14:34:21.575Z,4.20
2019-05-16T14:39:22.938Z,3.93
2019-05-16T14:44:24.286Z,5.10
2019-05-16T14:49:28.489Z,4.53
2019-05-16T14:54:28.645Z,6.07
2019-05-16T14:59:30.840Z,6.97
2019-05-16T15:04:32.135Z,7.27
2019-05-16T15:09:33.291Z,6.37
2019-05-16T15:14:37.252Z,7.50
2019-05-16T15:19:37.404Z,4.97
2019-05-16T15:24:38.512Z,7.70
2019-05-16T15:29:39.626Z,5.33
2019-05-16T15:34:40.827Z,7.13
2019-05-16T15:39:41.928Z,5.53
2019-05-16T15:44:43.016Z,6.67
2019-05-16T15:49:44.234Z,8.10
2019-05-16T15:54:46.623Z,7.87
2019-05-16T15:59:49.142Z,6.67
2019-05-16T16:04:50.379Z,7.60
2019-05-16T16:09:51.484Z,6.63
2019-05-16T16:14:52.602Z,6.23
2019-05-16T16:19:53.747Z,9.03
2019-05-16T16:24:57.327Z,4.93
2019-05-16T16:29:58.005Z,5.93
2019-05-16T16:34:59.117Z,6.80
2019-05-16T16:40:00.464Z,7.03
2019-05-16T16:45:03.491Z,8.90
2019-05-16T16:50:08.175Z,4.80
2019-05-16T16:55:09.696Z,6.57
2019-05-16T17:00:13.092Z,8.03
2019-05-16T17:05:16.925Z,6.07
2019-05-16T17:10:18.241Z,8.23
2019-05-16T17:15:19.646Z,6.30
2019-05-16T17:20:21.048Z,3.93
2019-05-16T17:25:22.285Z,4.23
2019-05-16T17:30:23.981Z,4.70
2019-05-16T17:35:26.886Z,4.57
2019-05-16T17:40:28.292Z,5.67
2019-05-16T17:45:30.631Z,5.17
2019-05-16T17:50:31.847Z,6.33
2019-05-16T17:55:33.063Z,5.37
2019-05-16T18:00:34.381Z,8.70
2019-05-16T18:05:37.061Z,8.17
2019-05-16T18:10:38.546Z,6.93
2019-05-16T18:15:39.857Z,5.33
2019-05-16T18:20:54.481Z,3.30
2019-05-16T18:25:44.022Z,8.30
2019-05-16T18:30:47.095Z,7.47
2019-05-16T18:35:48.153Z,6.00
2019-05-16T18:40:49.271Z,4.23
2019-05-16T18:45:50.412Z,4.87
2019-05-16T18:50:51.538Z,5.10
2019-05-16T18:55:52.665Z,2.77
2019-05-16T19:00:54.005Z,3.97
2019-05-16T19:05:57.157Z,5.00
2019-05-16T19:10:59.974Z,16.53
2019-05-16T19:16:01.492Z,17.33
2019-05-16T19:21:02.788Z,19.00
2019-05-16T19:26:04.160Z,9.37
2019-05-16T19:31:06.597Z,5.40
2019-05-16T19:36:08.011Z,5.17
2019-05-16T19:41:09.129Z,8.07
2019-05-16T19:46:10.245Z,17.70
2019-05-16T19:51:11.478Z,10.33
2019-05-16T19:56:12.610Z,5.23
2019-05-16T20:01:13.803Z,12.77
2019-05-16T20:06:16.838Z,9.97
2019-05-16T20:11:18.068Z,6.67
2019-05-16T20:16:19.201Z,8.70
2019-05-16T20:21:20.320Z,8.50
2019-05-16T20:26:21.472Z,9.87
2019-05-16T20:31:22.601Z,9.23
2019-05-16T20:36:23.733Z,8.30
2019-05-16T20:41:27.244Z,8.13
2019-05-16T20:46:28.006Z,7.63
2019-05-16T20:51:29.206Z,8.33
2019-05-16T20:56:30.305Z,8.47
2019-05-16T21:01:31.406Z,10.50
2019-05-16T21:06:32.520Z,12.37
2019-05-16T21:11:33.606Z,9.60
2019-05-16T21:16:34.722Z,19.53
2019-05-16T21:21:36.777Z,12.37
2019-05-16T21:26:38.053Z,11.40
2019-05-16T21:31:39.150Z,11.20
2019-05-16T21:36:40.239Z,11.33
2019-05-16T21:41:41.471Z,10.93
2019-05-16T21:46:42.582Z,12.20
2019-05-16T21:51:43.668Z,12.63
2019-05-16T21:56:46.619Z,12.23
2019-05-16T22:01:48.094Z,12.13
2019-05-16T22:06:49.204Z,11.77
2019-05-16T22:11:50.411Z,10.70
2019-05-16T22:16:51.487Z,10.63
2019-05-16T22:21:52.583Z,13.67
2019-05-16T22:26:53.707Z,11.03
2019-05-16T22:31:54.804Z,12.67
2019-05-16T22:36:57.244Z,15.07
2019-05-16T22:41:58.615Z,12.60
2019-05-16T22:47:00.506Z,13.13
2019-05-16T22:52:01.728Z,12.20
2019-05-16T22:57:06.537Z,14.10
2019-05-16T23:02:11.333Z,13.23
2019-05-16T23:07:11.588Z,11.93
2019-05-16T23:12:12.676Z,13.67
2019-05-16T23:17:13.773Z,13.97
2019-05-16T23:22:16.707Z,14.20
2019-05-16T23:27:17.887Z,15.30
2019-05-16T23:32:18.987Z,13.37
2019-05-16T23:37:20.087Z,13.37
2019-05-16T23:42:21.172Z,16.30
2019-05-16T23:47:22.380Z,14.40
2019-05-16T23:52:23.448Z,15.00
2019-05-16T23:57:26.635Z,16.83
